createdAt,value
2017-10-21T19:16:39.199Z,16.39
2017-10-21T19:22:57.120Z,16.28
2017-10-21T19:28:22.322Z,16.21
2017-10-21T19:30:57.848Z,16.04
2017-10-21T19:33:43.850Z,16.00
2017-10-21T19:36:20.989Z,16.10
2017-10-21T19:38:58.270Z,15.99
2017-10-21T19:41:50.540Z,15.83
2017-10-21T19:44:32.047Z,15.81
2017-10-21T19:47:10.616Z,15.82
2017-10-21T19:49:54.745Z,15.83
2017-10-21T19:55:45.690Z,15.50
2017-10-21T19:58:19.406Z,15.50
2017-10-21T20:00:56.320Z,15.40
2017-10-21T20:03:36.261Z,15.14
2017-10-21T20:06:13.380Z,15.32
2017-10-21T20:08:49.329Z,15.23
2017-10-21T20:11:28.585Z,15.60
2017-10-21T20:14:17.490Z,15.46
2017-10-21T20:16:54.973Z,15.61
2017-10-21T20:19:33.724Z,15.55
2017-10-21T20:22:19.924Z,15.52
2017-10-21T20:24:57.029Z,15.46
2017-10-21T20:27:39.234Z,15.27
2017-10-21T20:30:27.717Z,15.42
2017-10-21T20:38:36.528Z,15.70
2017-10-21T20:41:17.727Z,15.62
2017-10-21T20:43:53.216Z,15.67
2017-10-21T20:46:30.024Z,15.75
2017-10-21T20:54:35.230Z,15.76
2017-10-21T20:57:12.638Z,15.92
2017-10-21T20:59:49.241Z,15.83
2017-10-21T21:02:23.666Z,15.81
2017-10-21T21:05:12.293Z,15.85
2017-10-21T21:10:43.870Z,15.83
2017-10-21T21:13:28.459Z,15.87
2017-10-21T21:16:07.018Z,15.83
2017-10-21T21:19:13.078Z,15.87
2017-10-21T21:21:46.582Z,15.82
2017-10-21T21:24:19.200Z,15.69
2017-10-21T21:26:50.698Z,15.72
2017-10-21T21:29:23.281Z,15.88
2017-10-21T21:31:56.100Z,15.86
2017-10-21T21:34:44.703Z,15.70
2017-10-21T21:37:22.194Z,15.78
2017-10-21T21:40:00.393Z,15.77
2017-10-21T21:42:41.833Z,15.87
2017-10-21T21:45:23.835Z,15.66
2017-10-21T21:47:56.124Z,15.55
2017-10-21T21:50:27.655Z,15.78
2017-10-21T21:53:01.005Z,15.61
2017-10-21T21:55:33.229Z,15.62
2017-10-21T21:58:05.258Z,15.67
2017-10-21T22:00:42.940Z,15.59
2017-10-21T22:03:14.608Z,15.54
2017-10-21T22:05:45.814Z,15.39
2017-10-21T22:08:17.110Z,15.51
2017-10-21T22:10:49.048Z,15.60
2017-10-21T22:13:22.994Z,15.57
2017-10-21T22:15:55.278Z,15.58
2017-10-21T22:18:27.589Z,15.55
2017-10-21T22:20:59.697Z,15.53
2017-10-21T22:23:33.225Z,15.57
2017-10-21T22:29:39.265Z,15.34
2017-10-21T22:32:12.379Z,15.39
2017-10-21T22:34:48.403Z,15.41
2017-10-21T22:37:28.306Z,15.49
2017-10-21T22:40:16.211Z,14.94
2017-10-21T22:48:43.953Z,15.06
2017-10-21T22:51:16.328Z,14.57
2017-10-21T22:53:54.625Z,14.58
2017-10-21T22:56:28.256Z,15.08
2017-10-21T22:59:00.944Z,15.01
2017-10-21T23:01:33.533Z,14.66
2017-10-21T23:04:47.068Z,14.93
2017-10-21T23:07:26.959Z,14.84
2017-10-21T23:10:01.575Z,14.22
2017-10-21T23:12:49.469Z,14.41
2017-10-21T23:15:27.250Z,14.32
2017-10-21T23:17:59.801Z,14.37
2017-10-21T23:20:32.582Z,14.44
2017-10-21T23:23:04.095Z,14.69
2017-10-21T23:25:35.622Z,14.33
2017-10-21T23:28:09.909Z,14.21
2017-10-21T23:30:47.839Z,14.35
2017-10-21T23:33:19.507Z,14.18
2017-10-21T23:35:51.995Z,14.15
2017-10-21T23:38:23.824Z,14.49
2017-10-21T23:40:55.494Z,14.41
2017-10-21T23:43:28.949Z,14.45
2017-10-21T23:46:03.240Z,14.45
2017-10-21T23:48:42.539Z,14.49
2017-10-21T23:51:18.320Z,14.31
2017-10-21T23:53:54.128Z,14.65
2017-10-21T23:56:39.598Z,14.57
2017-10-21T23:59:11.037Z,14.68
